createdAt,value
2018-07-05T00:02:00.886Z,100875.92
2018-07-05T00:04:41.940Z,100879.02
2018-07-05T00:07:22.426Z,100879.93
2018-07-05T00:10:02.970Z,100879.40
2018-07-05T00:12:43.984Z,100874.71
2018-07-05T00:15:24.625Z,100870.06
2018-07-05T00:18:05.198Z,100866.59
2018-07-05T00:20:46.296Z,100875.47
2018-07-05T00:23:27.026Z,100872.73
2018-07-05T00:26:07.519Z,100864.31
2018-07-05T00:28:48.157Z,100870.63
2018-07-05T00:31:28.781Z,100863.44
2018-07-05T00:34:09.634Z,100866.55
2018-07-05T00:36:50.667Z,100873.75
2018-07-05T00:39:31.745Z,100868.61
2018-07-05T00:42:12.218Z,100870.05
2018-07-05T00:44:52.994Z,100870.92
2018-07-05T00:47:33.360Z,100864.64
2018-07-05T00:50:13.969Z,100869.31
2018-07-05T00:52:54.694Z,100869.85
2018-07-05T00:55:35.952Z,100862.97
2018-07-05T00:58:16.426Z,100865.73
2018-07-05T01:00:57.065Z,100861.36
2018-07-05T01:03:38.050Z,100866.91
2018-07-05T01:06:18.918Z,100870.52
2018-07-05T01:08:59.553Z,100869.75
2018-07-05T01:11:40.214Z,100866.17
2018-07-05T01:14:20.686Z,100861.23
2018-07-05T01:17:02.030Z,100861.83
2018-07-05T01:19:42.451Z,100864.06
2018-07-05T01:22:23.358Z,100871.55
2018-07-05T01:25:04.844Z,100867.67
2018-07-05T01:27:45.554Z,100874.29
2018-07-05T01:30:26.390Z,100870.60
2018-07-05T01:33:07.432Z,100869.62
2018-07-05T01:35:48.552Z,100871.11
2018-07-05T01:38:29.098Z,100860.16
2018-07-05T01:41:09.797Z,100868.31
2018-07-05T01:43:50.381Z,100872.66
2018-07-05T01:46:30.823Z,100871.77
2018-07-05T01:49:11.556Z,100868.48
2018-07-05T01:51:51.990Z,100878.92
2018-07-05T01:54:32.652Z,100867.88
2018-07-05T01:57:13.108Z,100870.41
2018-07-05T01:59:53.439Z,100876.77
2018-07-05T02:02:34.195Z,100879.34
2018-07-05T02:05:14.758Z,100874.37
2018-07-05T02:07:55.206Z,100875.52
2018-07-05T02:10:35.954Z,100878.45
2018-07-05T02:13:16.868Z,100868.06
2018-07-05T02:15:57.576Z,100866.70
2018-07-05T02:18:38.369Z,100865.06
2018-07-05T02:21:19.378Z,100864.74
2018-07-05T02:24:00.225Z,100862.08
2018-07-05T02:26:40.675Z,100860.23
2018-07-05T02:29:21.613Z,100866.70
2018-07-05T02:32:02.218Z,100868.38
2018-07-05T02:34:42.605Z,100868.66
2018-07-05T02:37:28.450Z,100861.77
2018-07-05T02:40:09.060Z,100864.17
2018-07-05T02:42:50.016Z,100873.54
2018-07-05T02:45:30.406Z,100869.92
2018-07-05T02:48:11.067Z,100873.24
2018-07-05T02:50:51.717Z,100864.13
2018-07-05T02:53:32.475Z,100849.89
2018-07-05T02:56:13.479Z,100852.66
2018-07-05T02:58:53.942Z,100848.31
2018-07-05T03:01:34.967Z,100851.88
2018-07-05T03:04:16.020Z,100856.31
2018-07-05T03:06:57.611Z,100854.89
2018-07-05T03:09:38.322Z,100856.23
2018-07-05T03:12:19.682Z,100857.66
2018-07-05T03:15:00.566Z,100862.54
2018-07-05T03:17:41.555Z,100859.66
2018-07-05T03:20:22.293Z,100857.22
2018-07-05T03:23:03.024Z,100855.77
2018-07-05T03:25:43.422Z,100858.48
2018-07-05T03:28:24.262Z,100864.02
2018-07-05T03:31:04.716Z,100873.71
2018-07-05T03:33:49.045Z,100874.78
2018-07-05T03:36:29.910Z,100867.12
2018-07-05T03:39:10.608Z,100861.64
2018-07-05T03:41:51.582Z,100855.34
2018-07-05T03:44:32.121Z,100857.27
2018-07-05T03:47:12.734Z,100857.91
2018-07-05T03:49:53.202Z,100850.25
2018-07-05T03:52:33.762Z,100846.72
2018-07-05T03:55:14.198Z,100840.14
2018-07-05T03:57:54.769Z,100848.16
2018-07-05T04:00:38.388Z,100855.55
2018-07-05T04:03:19.255Z,100862.43
2018-07-05T04:06:00.070Z,100859.73
2018-07-05T04:08:40.502Z,100865.41
2018-07-05T04:11:24.643Z,100862.34
2018-07-05T04:14:05.345Z,100855.17
2018-07-05T04:16:46.155Z,100849.12
2018-07-05T04:19:26.724Z,100847.25
2018-07-05T04:22:07.205Z,100854.92
2018-07-05T04:24:48.737Z,100859.59
2018-07-05T04:27:29.727Z,100858.27
2018-07-05T04:30:10.652Z,100862.78
2018-07-05T04:32:51.048Z,100859.73
2018-07-05T04:35:32.376Z,100866.77
2018-07-05T04:38:12.789Z,100874.41
2018-07-05T04:40:53.551Z,100873.34
2018-07-05T04:43:34.086Z,100868.63
2018-07-05T04:46:14.574Z,100861.47
2018-07-05T04:48:55.235Z,100874.86
2018-07-05T04:51:35.999Z,100870.68
2018-07-05T04:54:18.250Z,100874.34
2018-07-05T04:56:59.014Z,100871.88
2018-07-05T04:59:40.096Z,100870.14
2018-07-05T05:02:21.042Z,100872.34
2018-07-05T05:05:02.370Z,100881.83
2018-07-05T05:07:42.794Z,100886.20
2018-07-05T05:10:23.650Z,100882.56
2018-07-05T05:13:04.475Z,100883.66
2018-07-05T05:15:44.827Z,100881.43
2018-07-05T05:18:25.268Z,100885.25
2018-07-05T05:21:05.867Z,100884.78
2018-07-05T05:23:46.486Z,100890.28
2018-07-05T05:26:27.061Z,100889.43
2018-07-05T05:29:07.668Z,100889.97
2018-07-05T05:31:48.947Z,100889.59
2018-07-05T05:34:29.656Z,100891.11
2018-07-05T05:37:10.773Z,100898.77
2018-07-05T05:39:51.464Z,100903.33
2018-07-05T05:42:36.154Z,100908.50
2018-07-05T05:45:17.495Z,100914.22
2018-07-05T05:47:58.066Z,100914.14
2018-07-05T05:50:38.632Z,100912.20
2018-07-05T05:53:19.450Z,100914.97
2018-07-05T05:56:00.116Z,100912.50
2018-07-05T05:58:41.964Z,100903.70
2018-07-05T06:01:22.611Z,100909.12
2018-07-05T06:04:03.410Z,100906.97
2018-07-05T06:06:43.963Z,100909.17
2018-07-05T06:09:24.526Z,100911.91
2018-07-05T06:12:05.018Z,100915.75
2018-07-05T06:14:45.566Z,100925.04
2018-07-05T06:17:25.950Z,100926.70
2018-07-05T06:20:06.378Z,100925.33
2018-07-05T06:22:46.901Z,100927.75
2018-07-05T06:25:27.478Z,100934.06
2018-07-05T06:28:07.879Z,100937.05
2018-07-05T06:30:48.829Z,100932.98
2018-07-05T06:33:29.672Z,100936.31
2018-07-05T06:36:10.082Z,100929.49
2018-07-05T06:38:50.519Z,100927.80
2018-07-05T06:41:31.480Z,100937.98
2018-07-05T06:44:12.268Z,100931.67
2018-07-05T06:46:52.767Z,100936.23
2018-07-05T06:49:33.345Z,100938.63
2018-07-05T06:52:13.983Z,100936.13
2018-07-05T06:54:54.412Z,100928.75
2018-07-05T06:57:34.870Z,100924.67
2018-07-05T07:00:15.538Z,100922.14
2018-07-05T07:02:55.922Z,100924.80
2018-07-05T07:05:36.274Z,100929.70
2018-07-05T07:08:17.041Z,100923.91
2018-07-05T07:10:58.041Z,100922.53
2018-07-05T07:13:38.945Z,100924.20
2018-07-05T07:16:19.440Z,100925.12
2018-07-05T07:19:00.447Z,100930.06
2018-07-05T07:21:40.915Z,100948.16
2018-07-05T07:24:21.657Z,100948.45
2018-07-05T07:27:02.749Z,100952.22
2018-07-05T07:29:43.124Z,100950.80
2018-07-05T07:32:23.609Z,100955.09
2018-07-05T07:35:04.419Z,100954.84
2018-07-05T07:37:45.748Z,100962.39
2018-07-05T07:40:26.318Z,100963.40
2018-07-05T07:42:54.362Z,100960.66
2018-07-05T07:45:22.460Z,100968.08
2018-07-05T07:47:50.655Z,100969.03
2018-07-05T07:50:19.050Z,100971.48
2018-07-05T07:52:47.466Z,100968.94
2018-07-05T07:55:15.721Z,100963.75
2018-07-05T07:57:44.111Z,100969.87
2018-07-05T08:00:12.488Z,100966.27
2018-07-05T08:02:40.748Z,100962.18
2018-07-05T08:05:08.811Z,100964.41
2018-07-05T08:07:37.711Z,100955.06
2018-07-05T08:10:05.717Z,100956.16
2018-07-05T08:12:34.014Z,100957.03
2018-07-05T08:15:02.698Z,100953.69
2018-07-05T08:17:30.652Z,100962.84
2018-07-05T08:19:59.537Z,100956.55
2018-07-05T08:22:28.540Z,100962.03
2018-07-05T08:24:56.856Z,100963.84
2018-07-05T08:27:25.043Z,100965.96
2018-07-05T08:29:53.762Z,100960.93
2018-07-05T08:32:22.007Z,100963.52
2018-07-05T08:34:50.138Z,100961.95
2018-07-05T08:37:18.588Z,100961.12
2018-07-05T08:39:46.706Z,100947.88
2018-07-05T08:42:14.761Z,100947.98
2018-07-05T08:44:43.137Z,100951.19
2018-07-05T08:47:11.113Z,100947.04
2018-07-05T08:49:39.418Z,100952.22
2018-07-05T08:52:07.923Z,100949.00
2018-07-05T08:54:35.978Z,100947.17
2018-07-05T08:57:04.275Z,100944.42
2018-07-05T08:59:33.065Z,100954.02
2018-07-05T09:02:01.051Z,100954.39
2018-07-05T09:04:29.025Z,100956.23
2018-07-05T09:06:57.875Z,100952.28
2018-07-05T09:09:26.317Z,100954.11
2018-07-05T09:11:54.658Z,100953.73
2018-07-05T09:14:22.972Z,100944.09
2018-07-05T09:16:51.294Z,100948.40
2018-07-05T09:19:20.274Z,100950.14
2018-07-05T09:21:48.534Z,100951.36
2018-07-05T09:24:16.618Z,100949.02
2018-07-05T09:26:45.450Z,100949.28
2018-07-05T09:29:13.788Z,100943.40
2018-07-05T09:31:45.328Z,100935.20
2018-07-05T09:34:14.677Z,100940.39
2018-07-05T09:36:42.713Z,100944.42
2018-07-05T09:39:10.717Z,100944.77
2018-07-05T09:41:39.472Z,100943.83
2018-07-05T09:44:08.014Z,100945.89
2018-07-05T09:46:36.247Z,100942.36
2018-07-05T09:49:04.299Z,100944.48
2018-07-05T09:51:35.558Z,100943.71
2018-07-05T09:54:03.695Z,100941.92
2018-07-05T09:56:31.720Z,100943.67
2018-07-05T09:58:59.986Z,100946.63
2018-07-05T10:01:28.074Z,100950.19
2018-07-05T10:03:56.347Z,100945.80
2018-07-05T10:06:24.736Z,100943.73
2018-07-05T10:08:53.453Z,100941.73
2018-07-05T10:11:21.878Z,100939.78
2018-07-05T10:13:50.539Z,100938.16
2018-07-05T10:16:18.632Z,100945.19
2018-07-05T10:18:46.947Z,100946.36
2018-07-05T10:21:15.078Z,100940.00
2018-07-05T10:23:43.512Z,100937.56
2018-07-05T10:26:11.629Z,100938.41
2018-07-05T10:28:52.633Z,100935.97
2018-07-05T10:31:34.110Z,100930.61
2018-07-05T10:34:02.400Z,100930.81
2018-07-05T10:36:30.429Z,100924.91
2018-07-05T10:38:58.442Z,100929.13
2018-07-05T10:41:38.825Z,100920.75
2018-07-05T10:44:19.154Z,100921.06
2018-07-05T10:47:00.030Z,100912.03
2018-07-05T10:49:40.727Z,100920.05
2018-07-05T10:52:20.961Z,100919.94
2018-07-05T10:55:01.718Z,100913.19
2018-07-05T10:57:42.691Z,100920.59
2018-07-05T11:00:23.675Z,100919.23
2018-07-05T11:03:04.550Z,100921.05
2018-07-05T11:05:49.079Z,100926.70
2018-07-05T11:08:29.573Z,100922.82
2018-07-05T11:11:10.575Z,100931.88
2018-07-05T11:13:51.379Z,100932.01
2018-07-05T11:16:32.011Z,100928.52
2018-07-05T11:19:12.644Z,100928.80
2018-07-05T11:21:53.521Z,100938.37
2018-07-05T11:24:34.193Z,100934.66
2018-07-05T11:27:15.138Z,100932.86
2018-07-05T11:29:55.918Z,100929.41
2018-07-05T11:32:36.891Z,100931.07
2018-07-05T11:35:17.493Z,100934.25
2018-07-05T11:37:57.983Z,100927.08
2018-07-05T11:40:38.469Z,100929.00
2018-07-05T11:43:19.314Z,100932.88
2018-07-05T11:45:59.869Z,100929.06
2018-07-05T11:48:40.444Z,100923.30
2018-07-05T11:51:21.234Z,100921.73
2018-07-05T11:54:02.712Z,100917.47
2018-07-05T11:56:43.194Z,100922.85
2018-07-05T11:59:23.799Z,100911.75
2018-07-05T12:02:04.641Z,100912.42
2018-07-05T12:04:45.033Z,100907.58
2018-07-05T12:07:25.533Z,100911.50
2018-07-05T12:10:06.159Z,100911.79
2018-07-05T12:12:46.744Z,100903.94
2018-07-05T12:15:27.098Z,100904.41
2018-07-05T12:18:08.318Z,100907.98
2018-07-05T12:20:48.696Z,100911.05
2018-07-05T12:23:29.658Z,100907.76
2018-07-05T12:26:10.248Z,100916.14
2018-07-05T12:28:51.174Z,100914.08
2018-07-05T12:31:31.747Z,100919.45
2018-07-05T12:34:12.589Z,100910.26
2018-07-05T12:36:53.768Z,100915.30
2018-07-05T12:39:34.767Z,100910.97
2018-07-05T12:42:15.603Z,100910.91
2018-07-05T12:44:56.531Z,100909.40
2018-07-05T12:47:37.029Z,100921.98
2018-07-05T12:50:18.322Z,100911.71
2018-07-05T12:52:58.774Z,100917.78
2018-07-05T12:55:42.864Z,100916.45
2018-07-05T12:58:23.678Z,100916.10
2018-07-05T13:01:04.430Z,100915.17
2018-07-05T13:03:45.554Z,100920.02
2018-07-05T13:06:26.579Z,100921.14
2018-07-05T13:09:08.665Z,100916.06
2018-07-05T13:11:49.320Z,100915.67
2018-07-05T13:14:30.312Z,100920.40
2018-07-05T13:17:10.977Z,100921.70
2018-07-05T13:19:51.660Z,100921.11
2018-07-05T13:22:32.098Z,100920.77
2018-07-05T13:25:12.762Z,100909.20
2018-07-05T13:27:53.866Z,100909.02
2018-07-05T13:30:34.827Z,100919.39
2018-07-05T13:33:15.479Z,100919.27
2018-07-05T13:35:56.015Z,100924.20
2018-07-05T13:38:36.733Z,100916.09
2018-07-05T13:41:17.597Z,100918.27
2018-07-05T13:43:58.151Z,100914.56
2018-07-05T13:46:39.053Z,100905.20
2018-07-05T13:49:19.620Z,100910.41
2018-07-05T13:52:00.172Z,100905.93
2018-07-05T13:54:40.878Z,100918.08
2018-07-05T13:57:22.053Z,100910.09
2018-07-05T14:00:02.896Z,100911.62
2018-07-05T14:02:43.682Z,100913.69
2018-07-05T14:05:24.449Z,100921.19
2018-07-05T14:08:05.021Z,100905.97
2018-07-05T14:10:45.649Z,100909.34
2018-07-05T14:13:26.071Z,100909.21
2018-07-05T14:16:06.558Z,100917.75
2018-07-05T14:18:47.041Z,100917.94
2018-07-05T14:21:31.173Z,100916.00
2018-07-05T14:24:11.705Z,100912.98
2018-07-05T14:26:52.678Z,100926.80
2018-07-05T14:29:33.138Z,100919.55
2018-07-05T14:32:14.183Z,100915.39
2018-07-05T14:34:54.817Z,100914.06
2018-07-05T14:37:35.633Z,100915.27
2018-07-05T14:40:16.712Z,100917.15
2018-07-05T14:42:57.553Z,100918.55
2018-07-05T14:45:38.329Z,100916.53
2018-07-05T14:48:18.644Z,100927.83
2018-07-05T14:50:59.421Z,100924.16
2018-07-05T14:53:40.426Z,100932.85
2018-07-05T14:56:21.326Z,100940.12
2018-07-05T14:59:02.365Z,100943.59
2018-07-05T15:01:42.857Z,100941.50
2018-07-05T15:04:23.434Z,100935.56
2018-07-05T15:07:04.105Z,100937.09
2018-07-05T15:09:44.663Z,100941.09
2018-07-05T15:12:25.504Z,100930.61
2018-07-05T15:15:05.947Z,100947.23
2018-07-05T15:17:46.399Z,100940.23
2018-07-05T15:20:26.971Z,100945.37
2018-07-05T15:23:07.471Z,100939.63
2018-07-05T15:25:48.050Z,100951.39
2018-07-05T15:28:28.503Z,100949.28
2018-07-05T15:31:09.553Z,100951.07
2018-07-05T15:33:50.234Z,100956.92
2018-07-05T15:36:31.035Z,100955.14
2018-07-05T15:39:11.850Z,100955.91
2018-07-05T15:41:52.521Z,100950.38
2018-07-05T15:44:33.449Z,100945.09
2018-07-05T15:47:13.912Z,100945.34
2018-07-05T15:49:54.834Z,100944.93
2018-07-05T15:52:35.662Z,100952.04
2018-07-05T15:55:16.435Z,100938.56
2018-07-05T15:57:57.262Z,100939.47
2018-07-05T16:00:38.124Z,100932.36
2018-07-05T16:03:18.499Z,100935.76
2018-07-05T16:05:59.462Z,100928.27
2018-07-05T16:08:40.055Z,100928.99
2018-07-05T16:11:20.597Z,100926.89
2018-07-05T16:14:01.246Z,100921.03
2018-07-05T16:16:41.889Z,100916.88
2018-07-05T16:19:22.705Z,100928.11
2018-07-05T16:22:03.447Z,100919.89
2018-07-05T16:24:44.439Z,100926.88
2018-07-05T16:27:24.922Z,100921.02
2018-07-05T16:30:05.320Z,100918.00
2018-07-05T16:32:45.860Z,100917.05
2018-07-05T16:35:26.570Z,100922.98
2018-07-05T16:38:07.027Z,100920.22
2018-07-05T16:40:47.670Z,100916.62
2018-07-05T16:43:28.190Z,100918.22
2018-07-05T16:46:09.347Z,100917.77
2018-07-05T16:48:50.203Z,100915.57
2018-07-05T16:51:30.589Z,100911.59
2018-07-05T16:54:10.895Z,100911.52
2018-07-05T16:56:51.550Z,100915.08
2018-07-05T16:59:32.389Z,100911.44
2018-07-05T17:02:13.272Z,100915.08
2018-07-05T17:04:53.808Z,100919.89
2018-07-05T17:07:34.708Z,100917.28
2018-07-05T17:10:15.152Z,100915.25
2018-07-05T17:12:55.966Z,100918.59
2018-07-05T17:15:36.879Z,100917.77
2018-07-05T17:18:18.255Z,100916.96
2018-07-05T17:20:59.049Z,100918.66
2018-07-05T17:23:39.699Z,100912.17
2018-07-05T17:26:20.249Z,100910.70
2018-07-05T17:29:01.041Z,100905.08
2018-07-05T17:31:41.591Z,100908.56
2018-07-05T17:34:22.114Z,100910.20
2018-07-05T17:37:03.383Z,100914.00
2018-07-05T17:39:48.025Z,100914.99
2018-07-05T17:42:28.694Z,100923.05
2018-07-05T17:45:09.578Z,100923.71
2018-07-05T17:47:50.288Z,100922.98
2018-07-05T17:50:30.939Z,100922.18
2018-07-05T17:53:11.495Z,100923.73
2018-07-05T17:55:51.942Z,100925.52
2018-07-05T17:58:33.129Z,100932.49
2018-07-05T18:01:13.478Z,100934.75
2018-07-05T18:03:54.133Z,100931.41
2018-07-05T18:06:35.104Z,100936.45
2018-07-05T18:09:15.947Z,100935.92
2018-07-05T18:11:56.683Z,100936.75
2018-07-05T18:14:37.597Z,100941.69
2018-07-05T18:17:19.103Z,100943.03
2018-07-05T18:19:59.953Z,100946.45
2018-07-05T18:22:40.453Z,100939.27
2018-07-05T18:25:21.711Z,100943.14
2018-07-05T18:28:03.290Z,100952.55
2018-07-05T18:30:49.146Z,100948.95
2018-07-05T18:33:30.073Z,100954.28
2018-07-05T18:36:10.510Z,100948.68
2018-07-05T18:38:55.700Z,100952.63
2018-07-05T18:41:36.424Z,100954.88
2018-07-05T18:44:17.049Z,100959.27
2018-07-05T18:46:57.632Z,100954.22
2018-07-05T18:49:42.337Z,100959.41
2018-07-05T18:52:23.180Z,100966.05
2018-07-05T18:55:07.436Z,100968.69
2018-07-05T18:57:48.193Z,100975.87
2018-07-05T19:00:28.667Z,100973.18
2018-07-05T19:03:09.197Z,100978.82
2018-07-05T19:05:49.560Z,100977.83
2018-07-05T19:08:29.994Z,100982.28
2018-07-05T19:11:10.710Z,100985.67
2018-07-05T19:13:51.417Z,100992.84
2018-07-05T19:16:32.237Z,100996.50
2018-07-05T19:19:12.760Z,101008.73
2018-07-05T19:21:53.835Z,101013.67
2018-07-05T19:24:34.402Z,101017.48
2018-07-05T19:27:14.965Z,101019.44
2018-07-05T19:29:55.312Z,101025.97
2018-07-05T19:32:36.131Z,101033.42
2018-07-05T19:35:16.968Z,101034.91
2018-07-05T19:37:57.445Z,101044.08
2018-07-05T19:40:37.764Z,101044.03
2018-07-05T19:43:18.321Z,101042.27
2018-07-05T19:45:59.049Z,101055.34
2018-07-05T19:48:43.754Z,101062.80
2018-07-05T19:51:24.628Z,101063.83
2018-07-05T19:54:05.386Z,101078.81
2018-07-05T19:56:45.795Z,101083.48
2018-07-05T19:59:26.685Z,101085.52
2018-07-05T20:02:07.216Z,101087.33
2018-07-05T20:04:47.762Z,101094.08
2018-07-05T20:07:28.274Z,101095.14
2018-07-05T20:10:09.066Z,101100.80
2018-07-05T20:12:52.716Z,101101.42
2018-07-05T20:15:33.587Z,101109.13
2018-07-05T20:18:14.490Z,101120.39
2018-07-05T20:20:55.190Z,101120.52
2018-07-05T20:23:35.582Z,101121.81
2018-07-05T20:26:15.873Z,101122.92
2018-07-05T20:28:56.726Z,101125.48
2018-07-05T20:31:37.456Z,101130.40
2018-07-05T20:34:17.903Z,101133.34
2018-07-05T20:36:58.554Z,101131.16
2018-07-05T20:39:39.350Z,101135.70
2018-07-05T20:42:20.206Z,101134.94
2018-07-05T20:45:00.518Z,101142.48
2018-07-05T20:47:41.442Z,101144.31
2018-07-05T20:50:22.220Z,101145.59
2018-07-05T20:53:02.620Z,101155.50
2018-07-05T20:55:43.287Z,101155.22
2018-07-05T20:58:23.713Z,101161.07
2018-07-05T21:01:04.679Z,101162.92
2018-07-05T21:03:44.963Z,101166.29
2018-07-05T21:06:25.870Z,101160.98
2018-07-05T21:09:06.450Z,101168.44
2018-07-05T21:11:47.377Z,101169.81
2018-07-05T21:14:31.582Z,101174.84
2018-07-05T21:17:12.090Z,101176.43
2018-07-05T21:19:52.780Z,101178.10
2018-07-05T21:22:33.888Z,101184.80
2018-07-05T21:25:14.702Z,101184.35
2018-07-05T21:27:55.730Z,101188.95
2018-07-05T21:30:36.199Z,101190.99
2018-07-05T21:33:16.820Z,101198.39
2018-07-05T21:35:57.143Z,101197.92
2018-07-05T21:38:37.741Z,101202.27
2018-07-05T21:41:18.768Z,101205.60
2018-07-05T21:44:02.502Z,101207.41
2018-07-05T21:46:43.336Z,101209.27
2018-07-05T21:49:24.108Z,101208.98
2018-07-05T21:52:05.226Z,101214.43
2018-07-05T21:54:45.994Z,101222.33
2018-07-05T21:57:27.014Z,101224.78
2018-07-05T22:00:07.434Z,101225.34
2018-07-05T22:02:48.094Z,101224.31
2018-07-05T22:05:29.192Z,101222.36
2018-07-05T22:08:10.039Z,101233.11
2018-07-05T22:10:50.745Z,101240.45
2018-07-05T22:13:31.262Z,101242.72
2018-07-05T22:16:12.020Z,101235.94
2018-07-05T22:18:57.807Z,101239.27
2018-07-05T22:21:43.616Z,101247.77
2018-07-05T22:24:29.496Z,101243.44
2018-07-05T22:27:13.990Z,101249.22
2018-07-05T22:29:59.858Z,101248.14
2018-07-05T22:32:40.742Z,101250.59
2018-07-05T22:35:21.272Z,101248.98
2018-07-05T22:38:01.964Z,101260.79
2018-07-05T22:40:42.806Z,101264.36
2018-07-05T22:43:23.298Z,101265.78
2018-07-05T22:46:03.704Z,101262.78
2018-07-05T22:48:44.275Z,101263.38
2018-07-05T22:51:24.978Z,101266.64
2018-07-05T22:54:05.765Z,101272.39
2018-07-05T22:56:46.310Z,101273.77
2018-07-05T22:59:27.030Z,101276.52
2018-07-05T23:02:07.741Z,101281.67
2018-07-05T23:04:48.283Z,101282.00
2018-07-05T23:07:29.136Z,101284.20
2018-07-05T23:10:09.669Z,101289.70
2018-07-05T23:12:50.425Z,101288.02
2018-07-05T23:15:31.492Z,101275.68
2018-07-05T23:18:12.562Z,101280.39
2018-07-05T23:20:52.975Z,101289.69
2018-07-05T23:23:33.653Z,101298.50
2018-07-05T23:26:14.131Z,101296.03
2018-07-05T23:28:55.146Z,101300.67
2018-07-05T23:31:36.120Z,101298.23
2018-07-05T23:34:16.424Z,101303.44
2018-07-05T23:36:57.360Z,101303.14
2018-07-05T23:39:37.704Z,101298.75
2018-07-05T23:42:18.648Z,101305.06
2018-07-05T23:44:59.482Z,101302.05
2018-07-05T23:47:39.743Z,101302.61
2018-07-05T23:50:20.979Z,101303.69
2018-07-05T23:53:01.632Z,101302.34
2018-07-05T23:55:42.460Z,101305.36
2018-07-05T23:58:23.189Z,101303.14
